sensor_id;sensor_type;location;lat;lon;timestamp;P1;durP1;ratioP1;P2;durP2;ratioP2
38264;SDS011;24062;47.480;8.768;2023-03-14T00:00:49;2.40;;;1.40;;
38264;SDS011;24062;47.480;8.768;2023-03-14T00:03:16;7.90;;;2.50;;
38264;SDS011;24062;47.480;8.768;2023-03-14T00:05:43;3.70;;;1.13;;
38264;SDS011;24062;47.480;8.768;2023-03-14T00:08:10;5.53;;;1.80;;
38264;SDS011;24062;47.480;8.768;2023-03-14T00:10:39;3.03;;;1.70;;
38264;SDS011;24062;47.480;8.768;2023-03-14T00:13:06;2.10;;;1.27;;
38264;SDS011;24062;47.480;8.768;2023-03-14T00:15:33;7.40;;;1.10;;
38264;SDS011;24062;47.480;8.768;2023-03-14T00:18:00;1.87;;;0.97;;
38264;SDS011;24062;47.480;8.768;2023-03-14T00:20:27;8.40;;;1.30;;
38264;SDS011;24062;47.480;8.768;2023-03-14T00:22:54;3.33;;;1.33;;
38264;SDS011;24062;47.480;8.768;2023-03-14T00:25:21;3.07;;;1.17;;
38264;SDS011;24062;47.480;8.768;2023-03-14T00:27:51;3.33;;;1.53;;
38264;SDS011;24062;47.480;8.768;2023-03-14T00:30:18;4.90;;;1.60;;
38264;SDS011;24062;47.480;8.768;2023-03-14T00:32:45;8.87;;;1.33;;
38264;SDS011;24062;47.480;8.768;2023-03-14T00:35:12;2.57;;;1.60;;
38264;SDS011;24062;47.480;8.768;2023-03-14T00:37:39;3.07;;;1.27;;
38264;SDS011;24062;47.480;8.768;2023-03-14T00:40:07;1.87;;;1.10;;
38264;SDS011;24062;47.480;8.768;2023-03-14T00:42:35;2.20;;;0.90;;
38264;SDS011;24062;47.480;8.768;2023-03-14T00:45:03;2.20;;;1.20;;
38264;SDS011;24062;47.480;8.768;2023-03-14T00:47:32;1.73;;;0.90;;
38264;SDS011;24062;47.480;8.768;2023-03-14T00:49:59;2.50;;;0.80;;
38264;SDS011;24062;47.480;8.768;2023-03-14T00:52:26;1.40;;;0.50;;
38264;SDS011;24062;47.480;8.768;2023-03-14T00:54:53;1.60;;;0.60;;
38264;SDS011;24062;47.480;8.768;2023-03-14T00:57:20;1.87;;;0.60;;
38264;SDS011;24062;47.480;8.768;2023-03-14T00:59:47;1.00;;;0.50;;
38264;SDS011;24062;47.480;8.768;2023-03-14T01:02:15;1.30;;;0.53;;
38264;SDS011;24062;47.480;8.768;2023-03-14T01:04:42;1.00;;;0.40;;
38264;SDS011;24062;47.480;8.768;2023-03-14T01:07:09;1.10;;;0.57;;
38264;SDS011;24062;47.480;8.768;2023-03-14T01:09:36;1.27;;;0.50;;
38264;SDS011;24062;47.480;8.768;2023-03-14T01:12:03;0.90;;;0.40;;
38264;SDS011;24062;47.480;8.768;2023-03-14T01:14:30;1.77;;;0.50;;
38264;SDS011;24062;47.480;8.768;2023-03-14T01:16:57;1.43;;;0.50;;
38264;SDS011;24062;47.480;8.768;2023-03-14T01:19:27;1.10;;;0.50;;
38264;SDS011;24062;47.480;8.768;2023-03-14T01:21:54;0.90;;;0.40;;
38264;SDS011;24062;47.480;8.768;2023-03-14T01:24:21;1.20;;;0.40;;
38264;SDS011;24062;47.480;8.768;2023-03-14T01:26:48;1.00;;;0.50;;
38264;SDS011;24062;47.480;8.768;2023-03-14T01:29:15;1.23;;;0.50;;
38264;SDS011;24062;47.480;8.768;2023-03-14T01:31:42;1.20;;;0.40;;
38264;SDS011;24062;47.480;8.768;2023-03-14T01:34:09;1.10;;;0.50;;
38264;SDS011;24062;47.480;8.768;2023-03-14T01:36:37;1.10;;;0.60;;
38264;SDS011;24062;47.480;8.768;2023-03-14T01:39:04;1.97;;;0.50;;
38264;SDS011;24062;47.480;8.768;2023-03-14T01:44:47;1.27;;;0.40;;
38264;SDS011;24062;47.480;8.768;2023-03-14T01:47:15;1.00;;;0.43;;
38264;SDS011;24062;47.480;8.768;2023-03-14T01:49:42;1.00;;;0.47;;
38264;SDS011;24062;47.480;8.768;2023-03-14T01:52:13;1.00;;;0.40;;
38264;SDS011;24062;47.480;8.768;2023-03-14T01:54:43;1.10;;;0.50;;
38264;SDS011;24062;47.480;8.768;2023-03-14T01:57:13;1.43;;;0.50;;
38264;SDS011;24062;47.480;8.768;2023-03-14T01:59:46;3.73;;;0.40;;
38264;SDS011;24062;47.480;8.768;2023-03-14T02:05:39;1.00;;;0.33;;
38264;SDS011;24062;47.480;8.768;2023-03-14T02:08:10;1.20;;;0.40;;
38264;SDS011;24062;47.480;8.768;2023-03-14T02:10:41;3.70;;;0.63;;
38264;SDS011;24062;47.480;8.768;2023-03-14T02:13:09;1.10;;;0.40;;
38264;SDS011;24062;47.480;8.768;2023-03-14T02:15:37;1.50;;;0.50;;
38264;SDS011;24062;47.480;8.768;2023-03-14T02:18:05;0.90;;;0.40;;
38264;SDS011;24062;47.480;8.768;2023-03-14T02:20:34;1.00;;;0.30;;
38264;SDS011;24062;47.480;8.768;2023-03-14T02:23:06;0.90;;;0.30;;
38264;SDS011;24062;47.480;8.768;2023-03-14T02:25:38;1.17;;;0.40;;
38264;SDS011;24062;47.480;8.768;2023-03-14T02:28:10;0.90;;;0.33;;
38264;SDS011;24062;47.480;8.768;2023-03-14T02:30:37;1.20;;;0.37;;
38264;SDS011;24062;47.480;8.768;2023-03-14T02:33:05;1.50;;;0.50;;
38264;SDS011;24062;47.480;8.768;2023-03-14T02:35:37;1.47;;;0.40;;
38264;SDS011;24062;47.480;8.768;2023-03-14T02:38:07;0.90;;;0.40;;
38264;SDS011;24062;47.480;8.768;2023-03-14T02:40:41;1.10;;;0.40;;
38264;SDS011;24062;47.480;8.768;2023-03-14T02:43:09;2.60;;;0.50;;
38264;SDS011;24062;47.480;8.768;2023-03-14T02:45:40;1.97;;;0.40;;
38264;SDS011;24062;47.480;8.768;2023-03-14T02:48:10;1.00;;;0.40;;
38264;SDS011;24062;47.480;8.768;2023-03-14T02:50:40;2.27;;;0.40;;
38264;SDS011;24062;47.480;8.768;2023-03-14T02:53:08;2.00;;;0.40;;
38264;SDS011;24062;47.480;8.768;2023-03-14T02:55:35;1.13;;;0.43;;
38264;SDS011;24062;47.480;8.768;2023-03-14T02:58:02;1.10;;;0.40;;
38264;SDS011;24062;47.480;8.768;2023-03-14T03:00:30;1.00;;;0.40;;
38264;SDS011;24062;47.480;8.768;2023-03-14T03:02:58;1.20;;;0.40;;
38264;SDS011;24062;47.480;8.768;2023-03-14T03:05:26;0.90;;;0.30;;
38264;SDS011;24062;47.480;8.768;2023-03-14T03:07:52;0.90;;;0.30;;
38264;SDS011;24062;47.480;8.768;2023-03-14T03:10:22;1.10;;;0.40;;
38264;SDS011;24062;47.480;8.768;2023-03-14T03:12:48;1.00;;;0.40;;
38264;SDS011;24062;47.480;8.768;2023-03-14T03:15:16;0.90;;;0.30;;
38264;SDS011;24062;47.480;8.768;2023-03-14T03:17:44;1.10;;;0.40;;
38264;SDS011;24062;47.480;8.768;2023-03-14T03:20:11;0.90;;;0.33;;
38264;SDS011;24062;47.480;8.768;2023-03-14T03:22:38;1.20;;;0.60;;
38264;SDS011;24062;47.480;8.768;2023-03-14T03:25:06;0.90;;;0.40;;
38264;SDS011;24062;47.480;8.768;2023-03-14T03:27:35;0.90;;;0.40;;
38264;SDS011;24062;47.480;8.768;2023-03-14T03:30:03;0.90;;;0.30;;
38264;SDS011;24062;47.480;8.768;2023-03-14T03:32:31;1.00;;;0.37;;
38264;SDS011;24062;47.480;8.768;2023-03-14T03:35:01;0.90;;;0.40;;
38264;SDS011;24062;47.480;8.768;2023-03-14T03:37:29;0.90;;;0.40;;
38264;SDS011;24062;47.480;8.768;2023-03-14T03:39:56;0.90;;;0.30;;
38264;SDS011;24062;47.480;8.768;2023-03-14T03:42:23;1.00;;;0.40;;
38264;SDS011;24062;47.480;8.768;2023-03-14T03:44:52;0.90;;;0.30;;
38264;SDS011;24062;47.480;8.768;2023-03-14T03:47:19;0.90;;;0.40;;
38264;SDS011;24062;47.480;8.768;2023-03-14T03:49:46;1.00;;;0.40;;
38264;SDS011;24062;47.480;8.768;2023-03-14T03:52:14;0.90;;;0.40;;
38264;SDS011;24062;47.480;8.768;2023-03-14T03:54:41;0.90;;;0.30;;
38264;SDS011;24062;47.480;8.768;2023-03-14T03:57:08;1.00;;;0.40;;
38264;SDS011;24062;47.480;8.768;2023-03-14T03:59:35;0.90;;;0.40;;
38264;SDS011;24062;47.480;8.768;2023-03-14T04:02:03;0.90;;;0.40;;
38264;SDS011;24062;47.480;8.768;2023-03-14T04:04:30;1.00;;;0.40;;
38264;SDS011;24062;47.480;8.768;2023-03-14T04:06:57;2.20;;;0.50;;
38264;SDS011;24062;47.480;8.768;2023-03-14T04:09:26;1.00;;;0.40;;
38264;SDS011;24062;47.480;8.768;2023-03-14T04:11:52;1.60;;;0.40;;
38264;SDS011;24062;47.480;8.768;2023-03-14T04:14:19;1.97;;;0.40;;
38264;SDS011;24062;47.480;8.768;2023-03-14T04:16:46;1.13;;;0.40;;
38264;SDS011;24062;47.480;8.768;2023-03-14T04:19:13;0.90;;;0.40;;
38264;SDS011;24062;47.480;8.768;2023-03-14T04:21:40;0.87;;;0.30;;
38264;SDS011;24062;47.480;8.768;2023-03-14T04:24:09;0.90;;;0.40;;
38264;SDS011;24062;47.480;8.768;2023-03-14T04:26:38;0.90;;;0.40;;
38264;SDS011;24062;47.480;8.768;2023-03-14T04:32:27;0.90;;;0.30;;
38264;SDS011;24062;47.480;8.768;2023-03-14T04:34:54;1.00;;;0.30;;
38264;SDS011;24062;47.480;8.768;2023-03-14T04:37:21;1.00;;;0.40;;
38264;SDS011;24062;47.480;8.768;2023-03-14T04:39:47;1.40;;;0.40;;
38264;SDS011;24062;47.480;8.768;2023-03-14T04:42:16;0.90;;;0.30;;
38264;SDS011;24062;47.480;8.768;2023-03-14T04:44:43;0.93;;;0.40;;
38264;SDS011;24062;47.480;8.768;2023-03-14T04:47:11;1.00;;;0.40;;
38264;SDS011;24062;47.480;8.768;2023-03-14T04:49:38;0.93;;;0.33;;
38264;SDS011;24062;47.480;8.768;2023-03-14T04:52:05;1.97;;;0.40;;
38264;SDS011;24062;47.480;8.768;2023-03-14T04:54:32;1.00;;;0.40;;
38264;SDS011;24062;47.480;8.768;2023-03-14T04:56:59;1.23;;;0.40;;
38264;SDS011;24062;47.480;8.768;2023-03-14T04:59:27;0.93;;;0.37;;
38264;SDS011;24062;47.480;8.768;2023-03-14T05:01:54;0.90;;;0.40;;
38264;SDS011;24062;47.480;8.768;2023-03-14T05:04:21;1.47;;;0.40;;
38264;SDS011;24062;47.480;8.768;2023-03-14T05:06:48;0.90;;;0.37;;
38264;SDS011;24062;47.480;8.768;2023-03-14T05:09:15;1.67;;;0.40;;
38264;SDS011;24062;47.480;8.768;2023-03-14T05:11:42;1.60;;;0.40;;
38264;SDS011;24062;47.480;8.768;2023-03-14T05:14:09;1.10;;;0.57;;
38264;SDS011;24062;47.480;8.768;2023-03-14T05:16:37;0.97;;;0.40;;
38264;SDS011;24062;47.480;8.768;2023-03-14T05:19:04;1.00;;;0.40;;
38264;SDS011;24062;47.480;8.768;2023-03-14T05:21:31;1.00;;;0.40;;
38264;SDS011;24062;47.480;8.768;2023-03-14T05:23:58;1.73;;;0.40;;
38264;SDS011;24062;47.480;8.768;2023-03-14T05:26:25;8.63;;;0.40;;
38264;SDS011;24062;47.480;8.768;2023-03-14T05:28:52;0.90;;;0.40;;
38264;SDS011;24062;47.480;8.768;2023-03-14T05:31:19;2.80;;;0.63;;
38264;SDS011;24062;47.480;8.768;2023-03-14T05:33:47;1.00;;;0.40;;
38264;SDS011;24062;47.480;8.768;2023-03-14T05:36:14;1.10;;;0.40;;
38264;SDS011;24062;47.480;8.768;2023-03-14T05:38:41;1.00;;;0.57;;
38264;SDS011;24062;47.480;8.768;2023-03-14T05:41:08;0.90;;;0.40;;
38264;SDS011;24062;47.480;8.768;2023-03-14T05:43:35;1.00;;;0.40;;
38264;SDS011;24062;47.480;8.768;2023-03-14T05:46:03;1.10;;;0.40;;
38264;SDS011;24062;47.480;8.768;2023-03-14T05:48:30;1.03;;;0.40;;
38264;SDS011;24062;47.480;8.768;2023-03-14T05:50:58;1.20;;;0.50;;
38264;SDS011;24062;47.480;8.768;2023-03-14T05:53:25;1.00;;;0.40;;
38264;SDS011;24062;47.480;8.768;2023-03-14T05:55:54;1.40;;;0.93;;
38264;SDS011;24062;47.480;8.768;2023-03-14T05:58:22;1.10;;;0.50;;
38264;SDS011;24062;47.480;8.768;2023-03-14T06:00:49;1.00;;;0.40;;
38264;SDS011;24062;47.480;8.768;2023-03-14T06:03:17;1.00;;;0.40;;
38264;SDS011;24062;47.480;8.768;2023-03-14T06:05:43;1.00;;;0.40;;
38264;SDS011;24062;47.480;8.768;2023-03-14T06:08:12;0.90;;;0.40;;
38264;SDS011;24062;47.480;8.768;2023-03-14T06:10:39;1.13;;;0.50;;
38264;SDS011;24062;47.480;8.768;2023-03-14T06:13:06;2.20;;;0.60;;
38264;SDS011;24062;47.480;8.768;2023-03-14T06:15:33;1.13;;;0.40;;
38264;SDS011;24062;47.480;8.768;2023-03-14T06:18:01;1.50;;;0.60;;
38264;SDS011;24062;47.480;8.768;2023-03-14T06:20:28;1.00;;;0.50;;
38264;SDS011;24062;47.480;8.768;2023-03-14T06:22:55;1.70;;;0.50;;
38264;SDS011;24062;47.480;8.768;2023-03-14T06:25:23;20.67;;;3.03;;
38264;SDS011;24062;47.480;8.768;2023-03-14T06:27:50;12.83;;;2.70;;
38264;SDS011;24062;47.480;8.768;2023-03-14T06:30:17;21.60;;;3.27;;
38264;SDS011;24062;47.480;8.768;2023-03-14T06:32:44;11.27;;;2.20;;
38264;SDS011;24062;47.480;8.768;2023-03-14T06:35:11;33.83;;;2.90;;
38264;SDS011;24062;47.480;8.768;2023-03-14T06:37:38;33.87;;;5.37;;
38264;SDS011;24062;47.480;8.768;2023-03-14T06:40:05;3.73;;;2.10;;
38264;SDS011;24062;47.480;8.768;2023-03-14T06:42:34;16.43;;;4.53;;
38264;SDS011;24062;47.480;8.768;2023-03-14T06:45:02;25.17;;;4.00;;
38264;SDS011;24062;47.480;8.768;2023-03-14T06:47:29;9.70;;;1.60;;
38264;SDS011;24062;47.480;8.768;2023-03-14T06:49:56;5.40;;;1.20;;
38264;SDS011;24062;47.480;8.768;2023-03-14T06:52:23;9.00;;;1.47;;
38264;SDS011;24062;47.480;8.768;2023-03-14T06:54:50;9.40;;;1.00;;
38264;SDS011;24062;47.480;8.768;2023-03-14T06:57:17;2.70;;;0.60;;
38264;SDS011;24062;47.480;8.768;2023-03-14T06:59:45;3.53;;;0.70;;
38264;SDS011;24062;47.480;8.768;2023-03-14T07:02:12;2.80;;;1.17;;
38264;SDS011;24062;47.480;8.768;2023-03-14T07:04:39;3.20;;;1.10;;
38264;SDS011;24062;47.480;8.768;2023-03-14T07:07:07;2.43;;;1.20;;
38264;SDS011;24062;47.480;8.768;2023-03-14T07:09:34;1.90;;;0.80;;
38264;SDS011;24062;47.480;8.768;2023-03-14T07:12:01;1.20;;;0.67;;
38264;SDS011;24062;47.480;8.768;2023-03-14T07:14:29;1.90;;;1.20;;
38264;SDS011;24062;47.480;8.768;2023-03-14T07:16:58;2.40;;;0.90;;
38264;SDS011;24062;47.480;8.768;2023-03-14T07:19:25;1.90;;;1.20;;
38264;SDS011;24062;47.480;8.768;2023-03-14T07:21:52;1.20;;;0.63;;
38264;SDS011;24062;47.480;8.768;2023-03-14T07:24:19;2.10;;;0.70;;
38264;SDS011;24062;47.480;8.768;2023-03-14T07:26:46;1.20;;;0.50;;
38264;SDS011;24062;47.480;8.768;2023-03-14T07:29:13;1.30;;;0.50;;
38264;SDS011;24062;47.480;8.768;2023-03-14T07:31:40;1.20;;;0.50;;
38264;SDS011;24062;47.480;8.768;2023-03-14T07:34:08;1.77;;;0.50;;
38264;SDS011;24062;47.480;8.768;2023-03-14T07:36:35;1.10;;;0.40;;
38264;SDS011;24062;47.480;8.768;2023-03-14T07:39:02;3.73;;;0.60;;
38264;SDS011;24062;47.480;8.768;2023-03-14T07:41:29;2.37;;;0.73;;
38264;SDS011;24062;47.480;8.768;2023-03-14T07:43:56;1.20;;;0.60;;
38264;SDS011;24062;47.480;8.768;2023-03-14T07:46:23;1.00;;;0.40;;
38264;SDS011;24062;47.480;8.768;2023-03-14T07:48:50;1.80;;;0.60;;
38264;SDS011;24062;47.480;8.768;2023-03-14T07:51:19;1.00;;;0.50;;
38264;SDS011;24062;47.480;8.768;2023-03-14T07:53:46;1.30;;;0.40;;
38264;SDS011;24062;47.480;8.768;2023-03-14T07:56:13;1.00;;;0.50;;
38264;SDS011;24062;47.480;8.768;2023-03-14T07:58:40;1.10;;;0.50;;
38264;SDS011;24062;47.480;8.768;2023-03-14T08:01:07;1.40;;;0.43;;
38264;SDS011;24062;47.480;8.768;2023-03-14T08:03:33;1.03;;;0.40;;
38264;SDS011;24062;47.480;8.768;2023-03-14T08:06:00;1.53;;;0.50;;
38264;SDS011;24062;47.480;8.768;2023-03-14T08:08:29;1.20;;;0.47;;
38264;SDS011;24062;47.480;8.768;2023-03-14T08:10:56;1.00;;;0.40;;
38264;SDS011;24062;47.480;8.768;2023-03-14T08:13:28;5.43;;;0.50;;
38264;SDS011;24062;47.480;8.768;2023-03-14T08:15:55;1.50;;;0.50;;
38264;SDS011;24062;47.480;8.768;2023-03-14T08:18:22;1.57;;;0.40;;
38264;SDS011;24062;47.480;8.768;2023-03-14T08:20:49;1.90;;;0.53;;
38264;SDS011;24062;47.480;8.768;2023-03-14T08:23:16;2.20;;;0.40;;
38264;SDS011;24062;47.480;8.768;2023-03-14T08:25:44;1.20;;;0.50;;
38264;SDS011;24062;47.480;8.768;2023-03-14T08:28:11;1.47;;;0.50;;
38264;SDS011;24062;47.480;8.768;2023-03-14T08:30:38;1.50;;;0.50;;
38264;SDS011;24062;47.480;8.768;2023-03-14T08:33:05;1.10;;;0.40;;
38264;SDS011;24062;47.480;8.768;2023-03-14T08:35:31;1.30;;;0.70;;
38264;SDS011;24062;47.480;8.768;2023-03-14T08:37:58;2.60;;;0.53;;
38264;SDS011;24062;47.480;8.768;2023-03-14T08:40:26;5.80;;;0.50;;
38264;SDS011;24062;47.480;8.768;2023-03-14T08:42:54;1.93;;;0.47;;
38264;SDS011;24062;47.480;8.768;2023-03-14T08:45:21;1.00;;;0.40;;
38264;SDS011;24062;47.480;8.768;2023-03-14T08:47:50;1.20;;;0.60;;
38264;SDS011;24062;47.480;8.768;2023-03-14T08:50:17;1.03;;;0.50;;
38264;SDS011;24062;47.480;8.768;2023-03-14T08:52:44;1.10;;;0.40;;
38264;SDS011;24062;47.480;8.768;2023-03-14T08:55:11;1.97;;;0.40;;
38264;SDS011;24062;47.480;8.768;2023-03-14T08:57:38;1.47;;;0.50;;
38264;SDS011;24062;47.480;8.768;2023-03-14T09:00:10;2.07;;;0.50;;
38264;SDS011;24062;47.480;8.768;2023-03-14T09:02:40;1.30;;;0.57;;
38264;SDS011;24062;47.480;8.768;2023-03-14T09:05:08;11.03;;;0.60;;
38264;SDS011;24062;47.480;8.768;2023-03-14T09:07:36;1.80;;;0.40;;
38264;SDS011;24062;47.480;8.768;2023-03-14T09:10:04;1.17;;;0.40;;
38264;SDS011;24062;47.480;8.768;2023-03-14T09:12:31;1.00;;;0.40;;
38264;SDS011;24062;47.480;8.768;2023-03-14T09:14:58;4.17;;;0.50;;
38264;SDS011;24062;47.480;8.768;2023-03-14T09:17:26;1.07;;;0.40;;
38264;SDS011;24062;47.480;8.768;2023-03-14T09:19:54;1.00;;;0.40;;
38264;SDS011;24062;47.480;8.768;2023-03-14T09:22:20;1.30;;;0.60;;
38264;SDS011;24062;47.480;8.768;2023-03-14T09:24:47;1.30;;;0.50;;
38264;SDS011;24062;47.480;8.768;2023-03-14T09:27:14;2.57;;;0.60;;
38264;SDS011;24062;47.480;8.768;2023-03-14T09:29:41;1.73;;;0.50;;
38264;SDS011;24062;47.480;8.768;2023-03-14T09:32:08;1.53;;;0.50;;
38264;SDS011;24062;47.480;8.768;2023-03-14T09:34:37;1.20;;;0.60;;
38264;SDS011;24062;47.480;8.768;2023-03-14T09:37:04;1.43;;;0.40;;
38264;SDS011;24062;47.480;8.768;2023-03-14T09:39:31;1.20;;;0.50;;
38264;SDS011;24062;47.480;8.768;2023-03-14T09:41:58;1.70;;;0.60;;
38264;SDS011;24062;47.480;8.768;2023-03-14T09:44:30;2.20;;;0.50;;
38264;SDS011;24062;47.480;8.768;2023-03-14T09:47:01;1.10;;;0.40;;
38264;SDS011;24062;47.480;8.768;2023-03-14T09:49:32;1.93;;;0.50;;
38264;SDS011;24062;47.480;8.768;2023-03-14T09:52:04;1.10;;;0.43;;
38264;SDS011;24062;47.480;8.768;2023-03-14T09:54:37;3.00;;;0.60;;
38264;SDS011;24062;47.480;8.768;2023-03-14T09:57:10;5.90;;;0.83;;
38264;SDS011;24062;47.480;8.768;2023-03-14T09:59:39;1.30;;;0.50;;
38264;SDS011;24062;47.480;8.768;2023-03-14T10:02:14;1.37;;;0.50;;
38264;SDS011;24062;47.480;8.768;2023-03-14T10:04:44;1.20;;;0.53;;
38264;SDS011;24062;47.480;8.768;2023-03-14T10:07:14;1.30;;;0.40;;
38264;SDS011;24062;47.480;8.768;2023-03-14T10:09:44;1.90;;;0.60;;
38264;SDS011;24062;47.480;8.768;2023-03-14T10:12:13;1.40;;;0.50;;
38264;SDS011;24062;47.480;8.768;2023-03-14T10:14:45;1.20;;;0.50;;
38264;SDS011;24062;47.480;8.768;2023-03-14T10:17:13;1.20;;;0.40;;
38264;SDS011;24062;47.480;8.768;2023-03-14T10:19:51;2.17;;;0.60;;
38264;SDS011;24062;47.480;8.768;2023-03-14T10:22:21;1.87;;;0.40;;
38264;SDS011;24062;47.480;8.768;2023-03-14T10:24:51;1.23;;;0.50;;
38264;SDS011;24062;47.480;8.768;2023-03-14T10:27:21;1.30;;;0.50;;
38264;SDS011;24062;47.480;8.768;2023-03-14T10:29:53;1.30;;;0.40;;
38264;SDS011;24062;47.480;8.768;2023-03-14T10:32:22;1.73;;;0.60;;
38264;SDS011;24062;47.480;8.768;2023-03-14T10:35:05;0.97;;;0.37;;
38264;SDS011;24062;47.480;8.768;2023-03-14T10:37:36;1.17;;;0.50;;
38264;SDS011;24062;47.480;8.768;2023-03-14T10:40:16;1.30;;;0.60;;
38264;SDS011;24062;47.480;8.768;2023-03-14T10:42:45;1.10;;;0.40;;
38264;SDS011;24062;47.480;8.768;2023-03-14T10:45:22;1.50;;;0.50;;
38264;SDS011;24062;47.480;8.768;2023-03-14T10:47:57;1.20;;;0.60;;
38264;SDS011;24062;47.480;8.768;2023-03-14T10:50:26;1.37;;;0.50;;
38264;SDS011;24062;47.480;8.768;2023-03-14T10:52:55;3.30;;;0.57;;
38264;SDS011;24062;47.480;8.768;2023-03-14T10:55:23;1.00;;;0.47;;
38264;SDS011;24062;47.480;8.768;2023-03-14T10:57:51;1.10;;;0.40;;
38264;SDS011;24062;47.480;8.768;2023-03-14T11:00:19;1.00;;;0.43;;
38264;SDS011;24062;47.480;8.768;2023-03-14T11:03:00;1.33;;;0.80;;
38264;SDS011;24062;47.480;8.768;2023-03-14T11:05:36;1.20;;;0.50;;
38264;SDS011;24062;47.480;8.768;2023-03-14T11:08:11;1.10;;;0.40;;
38264;SDS011;24062;47.480;8.768;2023-03-14T11:10:44;1.20;;;0.60;;
38264;SDS011;24062;47.480;8.768;2023-03-14T11:13:15;1.10;;;0.50;;
38264;SDS011;24062;47.480;8.768;2023-03-14T11:15:47;1.23;;;0.60;;
38264;SDS011;24062;47.480;8.768;2023-03-14T11:21:18;1.30;;;0.40;;
38264;SDS011;24062;47.480;8.768;2023-03-14T11:23:53;1.03;;;0.40;;
38264;SDS011;24062;47.480;8.768;2023-03-14T11:26:32;1.00;;;0.40;;
38264;SDS011;24062;47.480;8.768;2023-03-14T11:29:08;1.03;;;0.40;;
38264;SDS011;24062;47.480;8.768;2023-03-14T11:31:45;0.90;;;0.30;;
38264;SDS011;24062;47.480;8.768;2023-03-14T11:34:15;1.27;;;0.50;;
38264;SDS011;24062;47.480;8.768;2023-03-14T11:36:46;1.40;;;0.50;;
38264;SDS011;24062;47.480;8.768;2023-03-14T11:39:20;1.30;;;0.50;;
38264;SDS011;24062;47.480;8.768;2023-03-14T11:41:48;1.20;;;0.50;;
38264;SDS011;24062;47.480;8.768;2023-03-14T11:44:18;5.83;;;0.50;;
38264;SDS011;24062;47.480;8.768;2023-03-14T11:46:48;1.37;;;0.50;;
38264;SDS011;24062;47.480;8.768;2023-03-14T11:49:22;5.33;;;0.50;;
38264;SDS011;24062;47.480;8.768;2023-03-14T11:51:57;3.33;;;0.73;;
38264;SDS011;24062;47.480;8.768;2023-03-14T11:54:31;1.63;;;0.40;;
38264;SDS011;24062;47.480;8.768;2023-03-14T11:57:03;1.10;;;0.50;;
38264;SDS011;24062;47.480;8.768;2023-03-14T11:59:39;1.30;;;0.50;;
38264;SDS011;24062;47.480;8.768;2023-03-14T12:02:13;1.60;;;0.43;;
38264;SDS011;24062;47.480;8.768;2023-03-14T12:04:56;1.13;;;0.40;;
38264;SDS011;24062;47.480;8.768;2023-03-14T12:07:48;1.20;;;0.60;;
38264;SDS011;24062;47.480;8.768;2023-03-14T12:10:37;1.10;;;0.53;;
38264;SDS011;24062;47.480;8.768;2023-03-14T12:13:07;1.33;;;0.43;;
38264;SDS011;24062;47.480;8.768;2023-03-14T12:15:35;2.23;;;0.50;;
38264;SDS011;24062;47.480;8.768;2023-03-14T12:18:14;2.70;;;0.40;;
38264;SDS011;24062;47.480;8.768;2023-03-14T12:20:50;1.10;;;0.40;;
38264;SDS011;24062;47.480;8.768;2023-03-14T12:23:19;1.00;;;0.40;;
38264;SDS011;24062;47.480;8.768;2023-03-14T12:25:47;1.27;;;0.50;;
38264;SDS011;24062;47.480;8.768;2023-03-14T12:28:33;1.20;;;0.50;;
38264;SDS011;24062;47.480;8.768;2023-03-14T12:34:01;1.70;;;0.47;;
38264;SDS011;24062;47.480;8.768;2023-03-14T12:39:21;1.00;;;0.40;;
38264;SDS011;24062;47.480;8.768;2023-03-14T12:42:02;1.10;;;0.40;;
38264;SDS011;24062;47.480;8.768;2023-03-14T12:44:40;0.97;;;0.40;;
38264;SDS011;24062;47.480;8.768;2023-03-14T12:50:13;1.57;;;0.50;;
38264;SDS011;24062;47.480;8.768;2023-03-14T12:52:47;1.20;;;0.40;;
38264;SDS011;24062;47.480;8.768;2023-03-14T12:55:24;1.63;;;0.40;;
38264;SDS011;24062;47.480;8.768;2023-03-14T12:58:01;1.10;;;0.50;;
38264;SDS011;24062;47.480;8.768;2023-03-14T13:00:34;1.40;;;0.70;;
38264;SDS011;24062;47.480;8.768;2023-03-14T13:03:12;0.97;;;0.40;;
38264;SDS011;24062;47.480;8.768;2023-03-14T13:05:51;1.60;;;0.50;;
38264;SDS011;24062;47.480;8.768;2023-03-14T13:08:32;1.10;;;0.43;;
38264;SDS011;24062;47.480;8.768;2023-03-14T13:11:02;1.80;;;0.57;;
38264;SDS011;24062;47.480;8.768;2023-03-14T13:13:33;1.37;;;0.50;;
38264;SDS011;24062;47.480;8.768;2023-03-14T13:16:01;1.30;;;0.50;;
38264;SDS011;24062;47.480;8.768;2023-03-14T13:18:30;1.93;;;0.50;;
38264;SDS011;24062;47.480;8.768;2023-03-14T13:21:03;1.60;;;0.50;;
38264;SDS011;24062;47.480;8.768;2023-03-14T13:23:32;1.73;;;0.63;;
38264;SDS011;24062;47.480;8.768;2023-03-14T13:26:01;1.70;;;0.50;;
38264;SDS011;24062;47.480;8.768;2023-03-14T13:28:29;1.40;;;0.50;;
38264;SDS011;24062;47.480;8.768;2023-03-14T13:30:59;1.33;;;0.63;;
38264;SDS011;24062;47.480;8.768;2023-03-14T13:33:28;3.10;;;0.60;;
38264;SDS011;24062;47.480;8.768;2023-03-14T13:35:56;3.17;;;0.70;;
38264;SDS011;24062;47.480;8.768;2023-03-14T13:38:24;2.07;;;0.60;;
38264;SDS011;24062;47.480;8.768;2023-03-14T13:40:53;2.37;;;0.80;;
38264;SDS011;24062;47.480;8.768;2023-03-14T13:43:25;4.77;;;0.80;;
38264;SDS011;24062;47.480;8.768;2023-03-14T13:45:56;2.80;;;0.90;;
38264;SDS011;24062;47.480;8.768;2023-03-14T13:48:31;1.83;;;0.73;;
38264;SDS011;24062;47.480;8.768;2023-03-14T13:51:01;1.60;;;0.60;;
38264;SDS011;24062;47.480;8.768;2023-03-14T13:53:31;1.50;;;0.50;;
38264;SDS011;24062;47.480;8.768;2023-03-14T13:56:00;1.33;;;0.60;;
38264;SDS011;24062;47.480;8.768;2023-03-14T13:58:29;1.43;;;0.60;;
38264;SDS011;24062;47.480;8.768;2023-03-14T14:00:58;1.90;;;0.60;;
38264;SDS011;24062;47.480;8.768;2023-03-14T14:03:31;1.67;;;0.60;;
38264;SDS011;24062;47.480;8.768;2023-03-14T14:06:00;3.00;;;0.80;;
38264;SDS011;24062;47.480;8.768;2023-03-14T14:08:27;1.47;;;0.60;;
38264;SDS011;24062;47.480;8.768;2023-03-14T14:10:55;1.90;;;0.60;;
38264;SDS011;24062;47.480;8.768;2023-03-14T14:13:26;3.30;;;0.70;;
38264;SDS011;24062;47.480;8.768;2023-03-14T14:15:56;1.60;;;0.70;;
38264;SDS011;24062;47.480;8.768;2023-03-14T14:18:28;2.20;;;0.70;;
38264;SDS011;24062;47.480;8.768;2023-03-14T14:20:58;4.50;;;0.70;;
38264;SDS011;24062;47.480;8.768;2023-03-14T14:23:26;2.00;;;0.60;;
38264;SDS011;24062;47.480;8.768;2023-03-14T14:25:55;1.60;;;0.63;;
38264;SDS011;24062;47.480;8.768;2023-03-14T14:28:25;1.70;;;0.70;;
38264;SDS011;24062;47.480;8.768;2023-03-14T14:31:00;2.93;;;0.80;;
38264;SDS011;24062;47.480;8.768;2023-03-14T14:33:37;2.90;;;0.80;;
38264;SDS011;24062;47.480;8.768;2023-03-14T14:36:05;2.70;;;0.93;;
38264;SDS011;24062;47.480;8.768;2023-03-14T14:38:50;1.30;;;0.60;;
38264;SDS011;24062;47.480;8.768;2023-03-14T14:41:18;2.03;;;0.70;;
38264;SDS011;24062;47.480;8.768;2023-03-14T14:43:46;2.10;;;0.70;;
38264;SDS011;24062;47.480;8.768;2023-03-14T14:46:16;2.13;;;0.70;;
38264;SDS011;24062;47.480;8.768;2023-03-14T14:48:47;5.33;;;0.63;;
38264;SDS011;24062;47.480;8.768;2023-03-14T14:51:23;3.20;;;0.77;;
38264;SDS011;24062;47.480;8.768;2023-03-14T14:53:59;2.10;;;0.80;;
38264;SDS011;24062;47.480;8.768;2023-03-14T14:56:34;1.60;;;0.70;;
38264;SDS011;24062;47.480;8.768;2023-03-14T14:59:03;1.93;;;0.70;;
38264;SDS011;24062;47.480;8.768;2023-03-14T15:01:33;1.67;;;0.70;;
38264;SDS011;24062;47.480;8.768;2023-03-14T15:04:03;2.80;;;0.80;;
38264;SDS011;24062;47.480;8.768;2023-03-14T15:06:36;2.70;;;0.77;;
38264;SDS011;24062;47.480;8.768;2023-03-14T15:09:04;1.90;;;0.80;;
38264;SDS011;24062;47.480;8.768;2023-03-14T15:11:32;1.63;;;0.70;;
38264;SDS011;24062;47.480;8.768;2023-03-14T15:13:59;4.13;;;0.60;;
38264;SDS011;24062;47.480;8.768;2023-03-14T15:16:27;3.80;;;0.80;;
38264;SDS011;24062;47.480;8.768;2023-03-14T15:18:55;1.97;;;0.80;;
38264;SDS011;24062;47.480;8.768;2023-03-14T15:21:25;6.50;;;1.13;;